createdAt,value
2022-08-31T22:48:02.026Z,100511.16
2022-08-31T22:48:33.651Z,100515.25
2022-08-31T22:49:07.880Z,100507.84
2022-08-31T22:49:39.263Z,100515.00
2022-08-31T22:50:10.866Z,100511.97
2022-08-31T22:50:42.290Z,100510.59
2022-08-31T22:51:13.919Z,100518.50
2022-08-31T22:51:45.358Z,100512.44
2022-08-31T22:52:17.517Z,100510.81
2022-08-31T22:52:49.100Z,100514.66
2022-08-31T22:53:20.551Z,100510.81
2022-08-31T22:53:52.358Z,100507.56
2022-08-31T22:54:24.040Z,100509.47
2022-08-31T22:54:55.491Z,100505.63
2022-08-31T22:55:27.299Z,100506.16
2022-08-31T22:55:58.850Z,100511.69
2022-08-31T22:56:30.301Z,100505.16
2022-08-31T22:57:01.881Z,100508.19
2022-08-31T22:57:33.832Z,100503.59
2022-08-31T22:58:05.331Z,100502.09
2022-08-31T22:58:36.905Z,100501.59
2022-08-31T22:59:08.574Z,100499.22
2022-08-31T22:59:40.030Z,100495.44
2022-08-31T23:00:11.820Z,100503.06
2022-08-31T23:00:43.937Z,100506.91
2022-08-31T23:01:15.975Z,100496.78
2022-08-31T23:01:47.525Z,100501.72
2022-08-31T23:02:19.191Z,100498.16
2022-08-31T23:02:50.778Z,100501.72
2022-08-31T23:03:22.234Z,100496.25
2022-08-31T23:03:53.819Z,100500.91
2022-08-31T23:04:25.610Z,100500.91
2022-08-31T23:04:57.027Z,100497.06
2022-08-31T23:05:28.858Z,100498.69
2022-08-31T23:06:00.835Z,100499.28
2022-08-31T23:06:32.557Z,100505.84
2022-08-31T23:07:04.044Z,100502.59
2022-08-31T23:07:35.469Z,100502.06
2022-08-31T23:08:07.051Z,100496.31
2022-08-31T23:08:38.538Z,100495.50
2022-08-31T23:09:10.306Z,100492.75
2022-08-31T23:09:41.809Z,100499.34
2022-08-31T23:10:13.199Z,100505.09
2022-08-31T23:10:44.653Z,100497.72
2022-08-31T23:11:16.180Z,100507.53
2022-08-31T23:11:47.948Z,100498.00
2022-08-31T23:12:19.859Z,100502.66
2022-08-31T23:12:51.444Z,100496.38
2022-08-31T23:13:23.618Z,100501.84
2022-08-31T23:13:55.199Z,100498.00
2022-08-31T23:14:27.022Z,100498.56
2022-08-31T23:14:58.533Z,100496.38
2022-08-31T23:15:30.337Z,100496.38
2022-08-31T23:16:02.020Z,100500.78
2022-08-31T23:16:33.551Z,100499.97
2022-08-31T23:17:04.965Z,100498.88
2022-08-31T23:17:36.530Z,100498.34
2022-08-31T23:18:07.955Z,100497.81
2022-08-31T23:18:39.456Z,100497.81
2022-08-31T23:19:10.926Z,100496.72
2022-08-31T23:19:42.441Z,100500.56
2022-08-31T23:20:14.007Z,100498.63
2022-08-31T23:20:45.585Z,100503.56
2022-08-31T23:21:17.114Z,100504.41
2022-08-31T23:21:53.026Z,100498.09
2022-08-31T23:22:29.142Z,100498.91
2022-08-31T23:23:00.689Z,100498.41
2022-08-31T23:23:32.300Z,100492.94
2022-08-31T23:24:03.741Z,100497.28
2022-08-31T23:24:35.260Z,100494.56
2022-08-31T23:25:06.739Z,100496.47
2022-08-31T23:25:38.209Z,100490.47
2022-08-31T23:26:09.724Z,100496.75
2022-08-31T23:26:41.371Z,100491.59
2022-08-31T23:27:12.826Z,100500.91
2022-08-31T23:27:44.352Z,100489.94
2022-08-31T23:28:15.862Z,100498.97
2022-08-31T23:28:47.551Z,100488.31
2022-08-31T23:29:19.330Z,100493.50
2022-08-31T23:29:50.755Z,100489.13
2022-08-31T23:30:22.210Z,100495.72
2022-08-31T23:30:54.666Z,100492.97
2022-08-31T23:31:26.189Z,100487.78
2022-08-31T23:31:57.893Z,100486.97
2022-08-31T23:32:29.677Z,100488.09
2022-08-31T23:33:01.417Z,100491.94
2022-08-31T23:33:33.169Z,100493.56
2022-08-31T23:34:04.747Z,100493.56
2022-08-31T23:34:36.345Z,100496.28
2022-08-31T23:35:07.891Z,100494.66
2022-08-31T23:35:39.451Z,100489.19
2022-08-31T23:36:10.983Z,100494.66
2022-08-31T23:36:42.453Z,100483.72
2022-08-31T23:37:14.020Z,100491.09
2022-08-31T23:37:45.840Z,100484.53
2022-08-31T23:38:17.820Z,100490.28
2022-08-31T23:38:49.744Z,100482.09
2022-08-31T23:39:21.507Z,100483.19
2022-08-31T23:39:53.153Z,100485.63
2022-08-31T23:40:24.784Z,100490.28
2022-08-31T23:40:56.229Z,100484.00
2022-08-31T23:41:28.046Z,100483.47
2022-08-31T23:41:59.485Z,100479.94
2022-08-31T23:42:31.427Z,100480.75
2022-08-31T23:43:03.219Z,100480.75
2022-08-31T23:43:35.019Z,100486.22
2022-08-31T23:44:06.553Z,100481.84
2022-08-31T23:44:37.999Z,100482.13
2022-08-31T23:45:09.446Z,100476.66
2022-08-31T23:45:41.045Z,100482.97
2022-08-31T23:46:12.844Z,100482.44
2022-08-31T23:46:44.599Z,100482.97
2022-08-31T23:47:16.337Z,100485.97
2022-08-31T23:47:48.144Z,100484.06
2022-08-31T23:48:19.860Z,100485.97
2022-08-31T23:48:51.663Z,100477.50
2022-08-31T23:49:23.703Z,100480.22
2022-08-31T23:49:55.082Z,100477.50
2022-08-31T23:50:26.632Z,100480.50
2022-08-31T23:50:58.119Z,100484.88
2022-08-31T23:51:29.823Z,100485.16
2022-08-31T23:52:01.803Z,100484.06
2022-08-31T23:52:33.526Z,100478.06
2022-08-31T23:53:05.064Z,100476.44
2022-08-31T23:53:36.661Z,100480.81
2022-08-31T23:54:08.231Z,100477.25
2022-08-31T23:54:39.715Z,100475.63
2022-08-31T23:55:11.463Z,100478.34
2022-08-31T23:55:43.041Z,100476.72
2022-08-31T23:56:14.879Z,100478.66
2022-08-31T23:56:46.760Z,100475.91
2022-08-31T23:57:31.564Z,100481.38
2022-08-31T23:58:04.801Z,100474.56
2022-08-31T23:58:36.611Z,100483.59
2022-08-31T23:59:08.213Z,100477.31
2022-08-31T23:59:39.999Z,100476.47
